Portada
METAR-TAF:

METAR-TAF

Aeroports :

Petropavl, Kazakhstan

latitud: 54-46-28N, longitud: 069-11-06E, altitud: 139 m

Observació

L'informe es va fer fa 9 hores i 1 minuts, a les 11:30 UTC
Vent 6 kt del Sud-Oest
Temperatura -14°C
Humitat 72%
Pressió 1012 hPa
Visibilitat 10 km o més
Escasses núvols a una alçada de 2800 ft

METAR: UACP 021130Z 23003MPS 9999 FEW028 M14/M18 Q1012 R23/4/0535 NOSIG RMK QFE746/0995

Hora: 02:31 (20:31 UTC)

Pronòstic

L'informe es va fer fa 12 hores i 29 minuts, a les 08:02 UTC
Pronòstic vàlid del 02 a les 09 UTC al 02 a les 18 UTC
Vent 8 kt del Sud/Sud-Oest
Visibilitat 10 km o més
Núvols disperses a una alçada de 1500 ft
Cel ennuvolat a una alçada de 3000 ft
Temporalment
l' 02 a les 12 UTC al 02 a les 18 UTC
Vent 10 kt del Sud

TAF: UACP 020802Z 0209/0218 21004MPS 9999 SCT015 BKN030 TEMPO 0212/0218 18005MPS

Observacions i pronòstics meteorològics de més de 4000 aeroports (METAR i TAF).

Les estacions disponibles són els punts grocs i vermells al mapa.

Posi el ratolí al punt desitjat per veure el nom de l'estació.

Feu clic per veure les observacions i els pronòstics meteorològics.

Per canviar el mapa: feu clic els botons verds amb una creu de color negre per apropar; al botó verd amb un guió per allunyar la imatge; o en les fletxes verdes per a mapes adjacents.


METAR-TAF: